createdAt,value
2019-05-09T00:02:24.354Z,100262.59
2019-05-09T00:04:54.271Z,100260.89
2019-05-09T00:07:25.196Z,100265.22
2019-05-09T00:09:55.252Z,100265.72
2019-05-09T00:12:25.228Z,100267.49
2019-05-09T00:14:55.730Z,100261.03
2019-05-09T00:17:26.031Z,100264.13
2019-05-09T00:19:57.833Z,100254.92
2019-05-09T00:22:28.274Z,100146.09
2019-05-09T00:25:03.249Z,100256.73
2019-05-09T00:27:33.755Z,100257.60
2019-05-09T00:30:04.045Z,100257.60
2019-05-09T00:32:39.530Z,100261.03
2019-05-09T00:35:33.806Z,100260.13
2019-05-09T00:38:05.279Z,100260.20
2019-05-09T00:40:35.518Z,100255.53
2019-05-09T00:43:05.422Z,100263.08
2019-05-09T00:46:13.752Z,100256.05
2019-05-09T00:48:53.357Z,100255.21
2019-05-09T00:51:24.762Z,100249.17
2019-05-09T00:53:55.043Z,100247.42
2019-05-09T00:56:25.065Z,100246.55
2019-05-09T00:58:55.469Z,100238.80
2019-05-09T01:01:26.754Z,100238.80
2019-05-09T01:03:59.162Z,100259.52
2019-05-09T01:06:28.991Z,100222.94
2019-05-09T01:08:59.715Z,100244.68
2019-05-09T01:11:30.420Z,100231.19
2019-05-09T01:14:03.655Z,100234.30
2019-05-09T01:16:34.405Z,100231.28
2019-05-09T01:19:06.458Z,100228.61
2019-05-09T01:21:36.604Z,100216.41
2019-05-09T01:24:07.111Z,100210.27
2019-05-09T01:26:37.701Z,100205.91
2019-05-09T01:29:08.163Z,100200.67
2019-05-09T01:31:38.438Z,100195.02
2019-05-09T01:34:14.473Z,100188.93
2019-05-09T01:37:06.500Z,100162.75
2019-05-09T01:39:37.191Z,100182.03
2019-05-09T01:42:07.867Z,100178.55
2019-05-09T01:44:37.614Z,100172.46
2019-05-09T01:47:07.495Z,100169.87
2019-05-09T01:49:38.639Z,100168.55
2019-05-09T01:52:08.654Z,100163.39
2019-05-09T01:54:40.694Z,100159.98
2019-05-09T01:57:13.686Z,100159.92
2019-05-09T01:59:44.393Z,100152.95
2019-05-09T02:02:14.765Z,100152.55
2019-05-09T02:04:45.051Z,100130.22
2019-05-09T02:07:14.943Z,100130.22
2019-05-09T02:09:45.691Z,100138.08
2019-05-09T02:12:16.113Z,100125.84
2019-05-09T02:15:03.903Z,100131.08
2019-05-09T02:17:57.782Z,100123.27
2019-05-09T02:20:17.634Z,100123.27
2019-05-09T02:22:47.709Z,100110.17
2019-05-09T02:25:18.074Z,100108.86
2019-05-09T02:27:48.533Z,100090.44
2019-05-09T02:30:18.617Z,100086.55
2019-05-09T02:32:54.730Z,100084.80
2019-05-09T02:35:24.619Z,100089.98
2019-05-09T02:37:54.669Z,100087.87
2019-05-09T02:40:24.337Z,100081.25
2019-05-09T02:42:54.658Z,100070.77
2019-05-09T02:45:28.442Z,100066.45
2019-05-09T02:47:59.073Z,100066.45
2019-05-09T02:50:29.265Z,100034.33
2019-05-09T02:52:59.245Z,100034.33
2019-05-09T02:55:29.045Z,100050.85
2019-05-09T02:58:00.436Z,100050.85
2019-05-09T03:01:00.757Z,100060.45
2019-05-09T03:03:33.696Z,100061.80
2019-05-09T03:06:03.643Z,100043.87
2019-05-09T03:08:33.407Z,100043.03
2019-05-09T03:11:03.535Z,100043.02
2019-05-09T03:13:33.509Z,100039.52
2019-05-09T03:16:10.153Z,100035.59
2019-05-09T03:18:40.153Z,100039.53
2019-05-09T03:21:22.949Z,100036.88
2019-05-09T03:23:55.327Z,100034.27
2019-05-09T03:26:29.596Z,100022.91
2019-05-09T03:29:09.611Z,100020.66
2019-05-09T03:31:40.035Z,100019.28
2019-05-09T03:34:10.070Z,99999.27
2019-05-09T03:36:39.856Z,100008.40
2019-05-09T03:39:10.445Z,100008.40
2019-05-09T03:41:42.587Z,100011.50
2019-05-09T03:44:15.005Z,100001.89
2019-05-09T03:47:05.308Z,100004.50
2019-05-09T03:49:37.680Z,100007.55
2019-05-09T03:52:07.702Z,100007.55
2019-05-09T03:54:37.695Z,100001.41
2019-05-09T03:57:19.214Z,100000.92
2019-05-09T03:59:49.172Z,99993.98
2019-05-09T04:02:18.962Z,99993.98
2019-05-09T04:04:48.853Z,99994.35
2019-05-09T04:07:18.894Z,99989.04
2019-05-09T04:09:48.671Z,99984.31
2019-05-09T04:12:19.038Z,99986.86
2019-05-09T04:14:49.158Z,99986.86
2019-05-09T04:17:19.371Z,99980.69
2019-05-09T04:19:50.367Z,99986.80
2019-05-09T04:22:20.243Z,99974.09
2019-05-09T04:24:50.396Z,99973.22
2019-05-09T04:27:25.108Z,99973.66
2019-05-09T04:29:57.367Z,99968.39
2019-05-09T04:32:27.395Z,99968.39
2019-05-09T04:34:57.856Z,99960.96
2019-05-09T04:37:31.077Z,99959.14
2019-05-09T04:40:03.515Z,99963.07
2019-05-09T04:42:35.078Z,99955.23
2019-05-09T04:45:17.727Z,99957.88
2019-05-09T04:47:47.455Z,99950.78
2019-05-09T04:50:23.638Z,99952.48
2019-05-09T04:52:50.180Z,99935.89
2019-05-09T04:55:23.266Z,99943.78
2019-05-09T04:57:52.975Z,99943.78
2019-05-09T05:00:30.433Z,99954.66
2019-05-09T05:02:59.982Z,99954.66
2019-05-09T05:05:29.785Z,99947.26
2019-05-09T05:08:00.417Z,99937.61
2019-05-09T05:10:30.755Z,99934.96
2019-05-09T05:13:01.658Z,99928.78
2019-05-09T05:15:33.747Z,99930.16
2019-05-09T05:18:03.687Z,99928.92
2019-05-09T05:20:33.596Z,99927.97
2019-05-09T05:23:24.717Z,99918.34
2019-05-09T05:25:54.487Z,99918.34
2019-05-09T05:28:24.692Z,99914.84
2019-05-09T05:30:54.700Z,99914.84
2019-05-09T05:33:53.608Z,99906.95
2019-05-09T05:36:21.212Z,99906.95
2019-05-09T05:38:50.956Z,99914.82
2019-05-09T05:41:20.686Z,99912.20
2019-05-09T05:43:51.083Z,99918.29
2019-05-09T05:46:52.186Z,99923.53
2019-05-09T05:49:22.036Z,99912.22
2019-05-09T05:51:51.787Z,99914.94
2019-05-09T05:54:23.434Z,99914.94
2019-05-09T05:56:53.070Z,99913.13
2019-05-09T05:59:22.787Z,99908.67
2019-05-09T06:01:52.585Z,99898.12
2019-05-09T06:04:22.343Z,99909.98
2019-05-09T06:06:52.014Z,99896.90
2019-05-09T06:09:22.158Z,99898.18
2019-05-09T06:11:52.253Z,99892.53
2019-05-09T06:14:22.215Z,99891.21
2019-05-09T06:17:10.128Z,99888.13
2019-05-09T06:19:48.184Z,99890.19
2019-05-09T06:22:18.544Z,99883.16
2019-05-09T06:24:48.304Z,99882.25
2019-05-09T06:27:18.429Z,99885.28
2019-05-09T06:29:48.279Z,99879.69
2019-05-09T06:32:18.803Z,99873.97
2019-05-09T06:34:48.622Z,99873.66
2019-05-09T06:37:18.604Z,99885.81
2019-05-09T06:39:48.798Z,99881.50
2019-05-09T06:42:18.740Z,99877.13
2019-05-09T06:45:15.345Z,99870.07
2019-05-09T06:47:48.659Z,99879.63
2019-05-09T06:50:22.343Z,99880.13
2019-05-09T06:52:52.758Z,99866.58
2019-05-09T06:55:23.404Z,99865.33
2019-05-09T06:57:53.123Z,99864.02
2019-05-09T07:00:48.923Z,99860.02
2019-05-09T07:03:21.145Z,99859.52
2019-05-09T07:06:08.294Z,99859.52
2019-05-09T07:08:53.632Z,99853.02
2019-05-09T07:11:23.344Z,99848.27
2019-05-09T07:13:53.979Z,99840.49
2019-05-09T07:16:23.605Z,99837.23
2019-05-09T07:18:53.610Z,99833.30
2019-05-09T07:21:28.489Z,99824.55
2019-05-09T07:23:58.710Z,99831.13
2019-05-09T07:26:31.845Z,99829.41
2019-05-09T07:29:01.698Z,99817.66
2019-05-09T07:31:53.874Z,99819.27
2019-05-09T07:34:27.741Z,99825.37
2019-05-09T07:36:58.274Z,99823.14
2019-05-09T07:39:28.421Z,99814.83
2019-05-09T07:41:58.523Z,99812.95
2019-05-09T07:44:37.904Z,99812.95
2019-05-09T07:47:01.789Z,99820.82
2019-05-09T07:49:32.716Z,99814.66
2019-05-09T07:52:06.880Z,99812.36
2019-05-09T07:54:34.245Z,99813.23
2019-05-09T07:57:08.508Z,99813.64
2019-05-09T07:59:38.959Z,99810.86
2019-05-09T08:02:09.117Z,99816.11
2019-05-09T08:04:40.054Z,99819.90
2019-05-09T08:07:09.637Z,99818.59
2019-05-09T08:09:39.556Z,99811.42
2019-05-09T08:12:09.115Z,99810.63
2019-05-09T08:14:39.709Z,99810.63
2019-05-09T08:17:09.895Z,99815.77
2019-05-09T08:19:39.960Z,99818.47
2019-05-09T08:22:09.577Z,99824.96
2019-05-09T08:24:39.499Z,99812.06
2019-05-09T08:27:09.218Z,99810.14
2019-05-09T08:29:40.144Z,99811.97
2019-05-09T08:32:12.572Z,99805.41
2019-05-09T08:34:48.095Z,99807.25
2019-05-09T08:37:25.168Z,99808.64
2019-05-09T08:39:57.570Z,99803.22
2019-05-09T08:42:37.894Z,99805.70
2019-05-09T08:45:23.358Z,99807.42
2019-05-09T08:47:48.478Z,99813.46
2019-05-09T08:50:39.670Z,99809.13
2019-05-09T08:53:10.217Z,99800.05
2019-05-09T08:55:40.075Z,99800.41
2019-05-09T08:58:09.937Z,99806.53
2019-05-09T09:00:48.372Z,99807.70
2019-05-09T09:03:23.763Z,99798.03
2019-05-09T09:05:54.534Z,99800.20
2019-05-09T09:08:30.959Z,99799.88
2019-05-09T09:11:02.018Z,99808.55
2019-05-09T09:13:33.607Z,99805.13
2019-05-09T09:16:15.729Z,99802.94
2019-05-09T09:18:38.788Z,99801.14
2019-05-09T09:21:11.267Z,99810.72
2019-05-09T09:23:46.789Z,99809.09
2019-05-09T09:26:14.257Z,99805.72
2019-05-09T09:28:44.011Z,99805.72
2019-05-09T09:31:13.647Z,99801.67
2019-05-09T09:33:43.517Z,99801.95
2019-05-09T09:36:13.225Z,99796.84
2019-05-09T09:38:43.448Z,99799.96
2019-05-09T09:41:13.178Z,99784.96
2019-05-09T09:43:42.913Z,99798.89
2019-05-09T09:46:18.586Z,99789.52
2019-05-09T09:48:48.405Z,99793.13
2019-05-09T09:51:18.852Z,99801.52
2019-05-09T09:53:49.229Z,99802.45
2019-05-09T09:56:22.308Z,99806.05
2019-05-09T09:59:03.214Z,99813.84
2019-05-09T10:01:35.335Z,99821.78
2019-05-09T10:04:19.425Z,99825.19
2019-05-09T10:06:40.342Z,99835.96
2019-05-09T10:09:11.090Z,99841.33
2019-05-09T10:11:40.701Z,99834.41
2019-05-09T10:14:13.695Z,99842.39
2019-05-09T10:17:00.736Z,99852.97
2019-05-09T10:19:52.692Z,99838.98
2019-05-09T10:22:25.729Z,99853.93
2019-05-09T10:24:55.209Z,99847.80
2019-05-09T10:27:24.828Z,99846.92
2019-05-09T10:29:57.433Z,99845.55
2019-05-09T10:32:28.850Z,99834.69
2019-05-09T10:34:59.083Z,99848.72
2019-05-09T10:37:31.387Z,99841.22
2019-05-09T10:40:01.089Z,99846.97
2019-05-09T10:42:44.209Z,99843.41
2019-05-09T10:45:31.186Z,99845.99
2019-05-09T10:48:00.887Z,99844.29
2019-05-09T10:50:33.943Z,99847.22
2019-05-09T10:53:02.663Z,99850.87
2019-05-09T10:55:34.864Z,99851.25
2019-05-09T10:58:07.889Z,99847.30
2019-05-09T11:00:39.356Z,99848.67
2019-05-09T11:03:08.896Z,99850.77
2019-05-09T11:05:38.712Z,99853.80
2019-05-09T11:08:08.652Z,99854.23
2019-05-09T11:10:39.845Z,99854.58
2019-05-09T11:13:10.140Z,99856.19
2019-05-09T11:15:40.355Z,99855.27
2019-05-09T11:18:10.051Z,99850.88
2019-05-09T11:20:39.647Z,99860.95
2019-05-09T11:23:09.730Z,99858.33
2019-05-09T11:25:39.676Z,99856.04
2019-05-09T11:28:12.671Z,99859.64
2019-05-09T11:30:41.538Z,99855.35
2019-05-09T11:33:11.106Z,99851.55
2019-05-09T11:35:40.828Z,99857.11
2019-05-09T11:38:10.994Z,99862.27
2019-05-09T11:40:40.665Z,99867.00
2019-05-09T11:43:10.361Z,99858.62
2019-05-09T11:45:40.435Z,99862.03
2019-05-09T11:48:10.065Z,99867.29
2019-05-09T11:50:39.654Z,99863.10
2019-05-09T11:53:09.677Z,99872.22
2019-05-09T11:55:43.066Z,99883.66
2019-05-09T11:58:10.995Z,99869.63
2019-05-09T12:00:40.600Z,99871.72
2019-05-09T12:03:10.297Z,99862.66
2019-05-09T12:05:40.336Z,99870.55
2019-05-09T12:08:10.336Z,99875.42
2019-05-09T12:10:39.892Z,99866.66
2019-05-09T12:13:09.492Z,99881.62
2019-05-09T12:15:39.834Z,99881.52
2019-05-09T12:18:11.583Z,99880.20
2019-05-09T12:20:40.919Z,99881.47
2019-05-09T12:23:10.585Z,99881.52
2019-05-09T12:25:40.385Z,99888.19
2019-05-09T12:28:10.363Z,99885.52
2019-05-09T12:30:39.879Z,99889.42
2019-05-09T12:33:09.421Z,99882.40
2019-05-09T12:35:39.272Z,99885.80
2019-05-09T12:38:08.937Z,99888.83
2019-05-09T12:40:38.969Z,99893.80
2019-05-09T12:43:09.242Z,99897.26
2019-05-09T12:45:39.119Z,99894.68
2019-05-09T12:48:14.854Z,99895.41
2019-05-09T12:50:40.629Z,99902.81
2019-05-09T12:53:10.376Z,99898.97
2019-05-09T12:55:40.427Z,99905.55
2019-05-09T12:58:28.043Z,99905.50
2019-05-09T13:01:00.885Z,99910.32
2019-05-09T13:03:31.520Z,99919.66
2019-05-09T13:06:01.438Z,99918.88
2019-05-09T13:08:31.394Z,99918.44
2019-05-09T13:11:02.522Z,99924.49
2019-05-09T13:13:33.198Z,99925.32
2019-05-09T13:16:22.189Z,99918.22
2019-05-09T13:19:06.510Z,99920.50
2019-05-09T13:21:38.970Z,99929.66
2019-05-09T13:24:08.597Z,99923.08
2019-05-09T13:26:38.954Z,99924.39
2019-05-09T13:29:08.836Z,99930.19
2019-05-09T13:31:39.684Z,99927.03
2019-05-09T13:34:09.677Z,99927.28
2019-05-09T13:36:39.375Z,99931.23
2019-05-09T13:39:11.356Z,99926.89
2019-05-09T13:41:42.400Z,99926.06
2019-05-09T13:44:13.878Z,99927.91
2019-05-09T13:46:43.751Z,99934.09
2019-05-09T13:49:15.628Z,99937.41
2019-05-09T13:51:51.937Z,99933.77
2019-05-09T13:54:18.503Z,99941.80
2019-05-09T13:56:54.949Z,99936.67
2019-05-09T13:59:19.990Z,99939.95
2019-05-09T14:01:49.618Z,99936.25
2019-05-09T14:04:19.437Z,99936.89
2019-05-09T14:06:49.330Z,99939.82
2019-05-09T14:09:20.110Z,99934.10
2019-05-09T14:11:51.140Z,99936.65
2019-05-09T14:14:20.942Z,99928.69
2019-05-09T14:16:50.664Z,99935.72
2019-05-09T14:19:31.671Z,99939.66
2019-05-09T14:21:51.979Z,99938.97
2019-05-09T14:24:22.009Z,99940.06
2019-05-09T14:26:51.624Z,99941.31
2019-05-09T14:29:21.310Z,99941.11
2019-05-09T14:31:51.348Z,99938.97
2019-05-09T14:34:21.046Z,99941.55
2019-05-09T14:36:50.737Z,99939.84
2019-05-09T14:39:20.819Z,99936.23
2019-05-09T14:41:50.748Z,99940.67
2019-05-09T14:44:20.306Z,99949.22
2019-05-09T14:46:50.134Z,99948.14
2019-05-09T14:49:58.950Z,99941.99
2019-05-09T14:53:00.538Z,99943.90
2019-05-09T14:55:30.424Z,99946.82
2019-05-09T14:57:59.967Z,99945.88
2019-05-09T15:00:29.885Z,99940.42
2019-05-09T15:02:59.501Z,99940.37
2019-05-09T15:05:29.305Z,99939.50
2019-05-09T15:07:59.504Z,99949.34
2019-05-09T15:10:29.280Z,99946.53
2019-05-09T15:12:59.158Z,99946.05
2019-05-09T15:15:32.509Z,99944.33
2019-05-09T15:18:00.416Z,99945.01
2019-05-09T15:20:30.564Z,99948.13
2019-05-09T15:23:00.239Z,99956.86
2019-05-09T15:25:29.921Z,99949.06
2019-05-09T15:28:00.168Z,99949.67
2019-05-09T15:30:29.849Z,99958.11
2019-05-09T15:32:59.507Z,99970.20
2019-05-09T15:35:29.484Z,99974.62
2019-05-09T15:37:59.373Z,99975.45
2019-05-09T15:40:29.334Z,99977.17
2019-05-09T15:42:59.716Z,99975.69
2019-05-09T15:45:31.503Z,99983.10
2019-05-09T15:48:03.936Z,99986.88
2019-05-09T15:50:33.707Z,99983.76
2019-05-09T15:53:03.369Z,99981.07
2019-05-09T15:55:33.786Z,99987.70
2019-05-09T15:58:03.711Z,99995.16
2019-05-09T16:00:33.634Z,100008.73
2019-05-09T16:03:03.516Z,100004.19
2019-05-09T16:05:33.686Z,100012.97
2019-05-09T16:08:03.410Z,100013.89
2019-05-09T16:10:33.273Z,100025.22
2019-05-09T16:13:03.134Z,100023.45
2019-05-09T16:15:32.751Z,100027.41
2019-05-09T16:18:02.524Z,100021.25
2019-05-09T16:20:37.283Z,100025.20
2019-05-09T16:23:04.033Z,100018.58
2019-05-09T16:25:33.576Z,100027.69
2019-05-09T16:28:03.632Z,100019.67
2019-05-09T16:30:33.737Z,100012.11
2019-05-09T16:33:03.333Z,100018.92
2019-05-09T16:35:32.916Z,100021.77
2019-05-09T16:38:07.889Z,100015.52
2019-05-09T16:40:34.710Z,100027.75
2019-05-09T16:43:04.605Z,100026.37
2019-05-09T16:45:34.238Z,100020.77
2019-05-09T16:48:04.278Z,100028.91
2019-05-09T16:50:34.429Z,100032.31
2019-05-09T16:53:04.034Z,100022.98
2019-05-09T16:55:38.088Z,100026.16
2019-05-09T16:58:08.724Z,100029.12
2019-05-09T17:00:49.743Z,100032.04
2019-05-09T17:03:19.392Z,100028.14
2019-05-09T17:05:48.990Z,100036.36
2019-05-09T17:08:19.151Z,100031.86
2019-05-09T17:10:49.032Z,100033.08
2019-05-09T17:13:18.769Z,100034.33
2019-05-09T17:15:48.832Z,100037.89
2019-05-09T17:18:19.184Z,100037.73
2019-05-09T17:21:18.276Z,100042.95
2019-05-09T17:23:39.770Z,100041.13
2019-05-09T17:26:09.842Z,100049.27
2019-05-09T17:28:40.184Z,100043.99
2019-05-09T17:31:10.387Z,100039.09
2019-05-09T17:33:40.319Z,100048.78
2019-05-09T17:36:09.999Z,100046.70
2019-05-09T17:38:39.520Z,100050.66
2019-05-09T17:41:09.080Z,100054.50
2019-05-09T17:43:38.823Z,100055.86
2019-05-09T17:46:08.693Z,100060.71
2019-05-09T17:48:38.733Z,100050.39
2019-05-09T17:51:09.887Z,100054.02
2019-05-09T17:53:40.019Z,100054.06
2019-05-09T17:56:10.846Z,100054.95
2019-05-09T17:58:40.769Z,100059.41
2019-05-09T18:01:10.820Z,100055.06
2019-05-09T18:03:41.002Z,100055.93
2019-05-09T18:06:10.659Z,100069.23
2019-05-09T18:08:41.229Z,100068.25
2019-05-09T18:11:13.051Z,100072.70
2019-05-09T18:13:43.559Z,100076.74
2019-05-09T18:16:14.555Z,100073.63
2019-05-09T18:18:44.878Z,100080.43
2019-05-09T18:21:14.824Z,100079.06
2019-05-09T18:23:45.107Z,100084.83
2019-05-09T18:26:15.060Z,100090.36
2019-05-09T18:28:44.966Z,100076.94
2019-05-09T18:31:14.846Z,100089.72
2019-05-09T18:33:48.685Z,100095.98
2019-05-09T18:36:19.006Z,100088.16
2019-05-09T18:38:49.000Z,100101.39
2019-05-09T18:41:18.897Z,100101.87
2019-05-09T18:43:48.902Z,100103.72
2019-05-09T18:46:21.594Z,100101.73
2019-05-09T18:48:50.909Z,100099.58
2019-05-09T18:51:20.854Z,100096.95
2019-05-09T18:53:50.795Z,100101.34
2019-05-09T18:56:21.074Z,100099.10
2019-05-09T18:58:51.902Z,100097.44
2019-05-09T19:01:22.068Z,100093.22
2019-05-09T19:03:52.392Z,100100.24
2019-05-09T19:06:22.211Z,100104.23
2019-05-09T19:08:52.875Z,100110.52
2019-05-09T19:11:25.814Z,100104.33
2019-05-09T19:13:57.863Z,100112.27
2019-05-09T19:16:57.080Z,100111.44
2019-05-09T19:19:42.840Z,100114.07
2019-05-09T19:22:22.009Z,100108.92
2019-05-09T19:24:45.074Z,100117.31
2019-05-09T19:27:15.209Z,100119.55
2019-05-09T19:29:45.045Z,100108.66
2019-05-09T19:32:15.708Z,100118.80
2019-05-09T19:34:45.595Z,100120.22
2019-05-09T19:37:15.340Z,100123.73
2019-05-09T19:39:46.351Z,100121.58
2019-05-09T19:42:16.580Z,100127.28
2019-05-09T19:44:47.173Z,100129.48
2019-05-09T19:47:17.605Z,100132.22
2019-05-09T19:49:47.336Z,100135.00
2019-05-09T19:52:17.755Z,100139.02
2019-05-09T19:54:48.129Z,100135.91
2019-05-09T19:57:18.899Z,100132.44
2019-05-09T19:59:49.801Z,100145.64
2019-05-09T20:02:20.074Z,100145.63
2019-05-09T20:04:50.399Z,100135.29
2019-05-09T20:07:20.081Z,100133.57
2019-05-09T20:09:54.857Z,100131.86
2019-05-09T20:12:35.078Z,100134.05
2019-05-09T20:15:06.033Z,100144.06
2019-05-09T20:17:38.583Z,100142.34
2019-05-09T20:20:11.689Z,100148.41
2019-05-09T20:22:52.560Z,100150.16
2019-05-09T20:25:15.666Z,100150.16
2019-05-09T20:27:49.522Z,100150.27
2019-05-09T20:30:20.297Z,100149.83
2019-05-09T20:32:50.329Z,100150.33
2019-05-09T20:35:20.021Z,100159.63
2019-05-09T20:37:51.707Z,100164.86
2019-05-09T20:40:21.959Z,100164.86
2019-05-09T20:42:56.665Z,100167.92
2019-05-09T20:45:26.974Z,100167.52
2019-05-09T20:48:00.223Z,100165.23
2019-05-09T20:50:30.315Z,100175.72
2019-05-09T20:53:09.583Z,100170.02
2019-05-09T20:55:35.784Z,100169.21
2019-05-09T20:58:09.359Z,100163.95
2019-05-09T21:00:39.997Z,100163.48
2019-05-09T21:03:10.995Z,100177.94
2019-05-09T21:05:41.218Z,100166.95
2019-05-09T21:08:11.373Z,100167.83
2019-05-09T21:10:42.933Z,100167.05
2019-05-09T21:13:15.723Z,100164.45
2019-05-09T21:15:46.119Z,100164.92
2019-05-09T21:18:17.536Z,100170.18
2019-05-09T21:20:48.604Z,100177.59
2019-05-09T21:23:24.629Z,100173.19
2019-05-09T21:25:51.077Z,100172.37
2019-05-09T21:28:21.205Z,100170.66
2019-05-09T21:30:51.500Z,100173.72
2019-05-09T21:33:21.606Z,100175.13
2019-05-09T21:35:51.650Z,100172.53
2019-05-09T21:38:21.638Z,100172.53
2019-05-09T21:40:51.789Z,100186.48
2019-05-09T21:43:22.040Z,100191.72
2019-05-09T21:45:52.007Z,100189.05
2019-05-09T21:48:22.230Z,100189.05
2019-05-09T21:50:52.543Z,100192.56
2019-05-09T21:53:23.067Z,100198.66
2019-05-09T21:55:53.487Z,100195.16
2019-05-09T21:58:23.418Z,100198.64
2019-05-09T22:00:56.180Z,100194.31
2019-05-09T22:03:26.304Z,100196.13
2019-05-09T22:05:56.159Z,100200.00
2019-05-09T22:08:26.472Z,100200.86
2019-05-09T22:10:56.307Z,100197.79
2019-05-09T22:13:26.318Z,100194.81
2019-05-09T22:15:56.749Z,100192.18
2019-05-09T22:18:26.741Z,100198.84
2019-05-09T22:20:56.617Z,100194.52
2019-05-09T22:23:26.705Z,100198.03
2019-05-09T22:25:56.898Z,100196.21
2019-05-09T22:28:26.670Z,100198.00
2019-05-09T22:30:56.710Z,100206.30
2019-05-09T22:33:26.577Z,100197.59
2019-05-09T22:35:56.378Z,100208.53
2019-05-09T22:38:26.352Z,100211.98
2019-05-09T22:40:56.545Z,100211.98
2019-05-09T22:43:28.842Z,100201.41
2019-05-09T22:45:58.645Z,100201.44
2019-05-09T22:48:28.876Z,100201.44
2019-05-09T22:51:00.554Z,100204.91
2019-05-09T22:53:30.397Z,100207.61
2019-05-09T22:56:00.395Z,100197.56
2019-05-09T22:58:30.430Z,100197.91
2019-05-09T23:01:00.066Z,100197.12
2019-05-09T23:03:31.460Z,100189.73
2019-05-09T23:06:04.083Z,100197.17
2019-05-09T23:08:33.898Z,100196.33
2019-05-09T23:11:04.310Z,100198.05
2019-05-09T23:13:52.621Z,100187.57
2019-05-09T23:16:24.696Z,100187.57
2019-05-09T23:18:55.357Z,100196.27
2019-05-09T23:21:27.382Z,100191.83
2019-05-09T23:24:02.665Z,100184.30
2019-05-09T23:34:17.384Z,100189.14
2019-05-09T23:42:13.121Z,100176.91
2019-05-09T23:59:38.751Z,100181.48
